Schedule Details


Flight Number: CTN485
Departure: Arlanda (ESSA) at 18:10
Arrival: Franjo Tudman (LDZA) at 20:45
Route: TRS?M607?MALOX?P31?GOVEN?UP31?KOBUS?UM725?HDO?M725?VOZ?Z21?PISAM?DCT?PUBEG?DCT?PETOV

Weather Information
ESSA 112220Z 07006KT CAVOK 09/06 Q1012 NOSIG
LDZA 112230Z 25014KT CAVOK 19/10 Q1007 BECMG 24008KT
Schedule Frequency

Route Map